createdAt,value
2018-09-10T00:00:22.130Z,93.50
2018-09-10T00:02:49.817Z,93.40
2018-09-10T00:05:17.479Z,93.50
2018-09-10T00:07:45.454Z,93.50
2018-09-10T00:10:13.098Z,93.80
2018-09-10T00:12:40.782Z,93.60
2018-09-10T00:15:08.442Z,93.70
2018-09-10T00:17:36.168Z,93.60
2018-09-10T00:20:03.902Z,93.60
2018-09-10T00:22:31.602Z,93.50
2018-09-10T00:24:59.729Z,93.60
2018-09-10T00:27:27.403Z,93.50
2018-09-10T00:29:55.038Z,93.50
2018-09-10T00:32:22.731Z,93.50
2018-09-10T00:34:50.491Z,93.50
2018-09-10T00:37:18.182Z,93.30
2018-09-10T00:39:45.932Z,93.10
2018-09-10T00:42:13.675Z,93.20
2018-09-10T00:44:41.360Z,93.10
2018-09-10T00:47:09.570Z,93.20
2018-09-10T00:49:37.359Z,93.50
2018-09-10T00:52:05.089Z,93.40
2018-09-10T00:54:32.752Z,93.20
2018-09-10T00:57:00.533Z,93.10
2018-09-10T00:59:28.185Z,93.00
2018-09-10T01:01:56.738Z,93.00
2018-09-10T01:04:24.855Z,92.80
2018-09-10T01:06:52.558Z,92.80
2018-09-10T01:09:20.238Z,93.10
2018-09-10T01:11:47.965Z,93.20
2018-09-10T01:14:16.087Z,93.10
2018-09-10T01:16:43.797Z,93.10
2018-09-10T01:19:11.582Z,93.40
2018-09-10T01:21:39.302Z,93.50
2018-09-10T01:24:28.917Z,93.70
2018-09-10T01:27:12.549Z,93.90
2018-09-10T01:29:40.206Z,93.90
2018-09-10T01:32:07.895Z,93.90
2018-09-10T01:34:41.176Z,94.10
2018-09-10T01:37:08.834Z,94.10
2018-09-10T01:39:36.546Z,94.10
2018-09-10T01:42:04.276Z,94.10
2018-09-10T01:44:31.925Z,94.00
2018-09-10T01:46:59.678Z,93.90
2018-09-10T01:49:27.379Z,94.10
2018-09-10T01:51:55.066Z,94.10
2018-09-10T01:54:22.761Z,94.00
2018-09-10T01:56:50.597Z,93.90
2018-09-10T01:59:18.242Z,93.90
2018-09-10T02:01:45.993Z,93.50
2018-09-10T02:04:14.321Z,93.20
2018-09-10T02:06:41.990Z,93.50
2018-09-10T02:09:09.909Z,93.20
2018-09-10T02:11:37.597Z,93.20
2018-09-10T02:14:05.411Z,93.40
2018-09-10T02:16:33.054Z,93.30
2018-09-10T02:19:00.721Z,93.40
2018-09-10T02:21:28.478Z,93.80
2018-09-10T02:23:56.169Z,94.10
2018-09-10T02:26:23.822Z,94.40
2018-09-10T02:28:51.526Z,94.40
2018-09-10T02:31:19.211Z,94.60
2018-09-10T02:33:46.903Z,94.70
2018-09-10T02:36:14.553Z,94.80
2018-09-10T02:38:42.438Z,95.10
2018-09-10T02:41:10.007Z,95.10
2018-09-10T02:43:37.673Z,95.20
2018-09-10T02:46:05.742Z,95.40
2018-09-10T02:48:33.472Z,95.30
2018-09-10T02:51:01.167Z,95.50
2018-09-10T02:53:28.941Z,95.70
2018-09-10T02:55:56.586Z,95.80
2018-09-10T02:58:24.469Z,95.80
2018-09-10T03:00:52.134Z,95.60
2018-09-10T03:03:19.830Z,95.90
2018-09-10T03:05:47.622Z,96.10
2018-09-10T03:08:15.402Z,96.30
2018-09-10T03:10:43.054Z,96.40
2018-09-10T03:13:10.747Z,96.20
2018-09-10T03:15:38.453Z,96.20
2018-09-10T03:18:06.206Z,96.20
2018-09-10T03:20:33.849Z,96.50
2018-09-10T03:23:01.546Z,96.40
2018-09-10T03:25:29.206Z,96.40
2018-09-10T03:27:56.855Z,96.40
2018-09-10T03:30:24.634Z,96.50
2018-09-10T03:32:52.277Z,96.30
2018-09-10T03:35:19.989Z,96.30
2018-09-10T03:37:47.725Z,96.40
2018-09-10T03:40:19.414Z,96.50
2018-09-10T03:42:47.246Z,96.70
2018-09-10T03:45:14.934Z,96.80
2018-09-10T03:47:42.580Z,96.60
2018-09-10T03:50:10.272Z,96.60
2018-09-10T03:52:37.916Z,96.90
2018-09-10T03:55:08.685Z,96.80
2018-09-10T03:57:36.381Z,96.80
2018-09-10T04:00:04.183Z,96.60
2018-09-10T04:02:31.923Z,96.90
2018-09-10T04:04:59.618Z,96.60
2018-09-10T04:07:27.286Z,96.70
2018-09-10T04:09:55.030Z,96.50
2018-09-10T04:12:22.702Z,96.70
2018-09-10T04:14:50.487Z,96.50
2018-09-10T04:17:18.337Z,96.30
2018-09-10T04:19:46.026Z,96.50
2018-09-10T04:22:13.703Z,96.40
2018-09-10T04:24:41.492Z,96.40
2018-09-10T04:27:09.130Z,96.40
2018-09-10T04:29:37.049Z,96.40
2018-09-10T04:32:04.734Z,96.30
2018-09-10T04:34:32.377Z,96.30
2018-09-10T04:37:00.016Z,96.20
2018-09-10T04:39:27.738Z,96.30
2018-09-10T04:41:55.381Z,96.50
2018-09-10T04:44:23.272Z,97.00
2018-09-10T04:46:51.024Z,96.60
2018-09-10T04:49:18.704Z,96.60
2018-09-10T04:51:46.418Z,96.60
2018-09-10T04:54:14.724Z,96.80
2018-09-10T04:56:42.441Z,96.60
2018-09-10T04:59:12.540Z,96.60
2018-09-10T05:01:40.185Z,96.70
2018-09-10T05:04:07.855Z,96.60
2018-09-10T05:06:35.588Z,96.70
2018-09-10T05:09:04.165Z,96.50
2018-09-10T05:11:31.909Z,96.80
2018-09-10T05:13:59.625Z,96.70
2018-09-10T05:16:29.131Z,96.60
2018-09-10T05:18:56.973Z,96.70
2018-09-10T05:21:24.677Z,96.70
2018-09-10T05:23:52.386Z,96.60
2018-09-10T05:26:20.090Z,96.70
2018-09-10T05:28:48.165Z,96.40
2018-09-10T05:31:15.865Z,96.70
2018-09-10T05:33:43.644Z,96.70
2018-09-10T05:36:11.342Z,96.60
2018-09-10T05:38:39.011Z,96.80
2018-09-10T05:41:06.710Z,96.40
2018-09-10T05:43:34.373Z,96.70
2018-09-10T05:46:02.684Z,96.60
2018-09-10T05:48:30.357Z,96.50
2018-09-10T05:50:58.097Z,96.80
2018-09-10T05:53:25.770Z,96.90
2018-09-10T05:55:53.654Z,96.50
2018-09-10T05:58:21.346Z,96.60
2018-09-10T06:00:49.099Z,96.80
2018-09-10T06:03:16.770Z,96.70
2018-09-10T06:05:44.476Z,96.80
2018-09-10T06:08:12.152Z,96.90
2018-09-10T06:10:39.945Z,96.90
2018-09-10T06:13:07.608Z,96.50
2018-09-10T06:15:35.744Z,96.90
2018-09-10T06:18:03.704Z,97.10
2018-09-10T06:20:31.478Z,97.00
2018-09-10T06:22:59.145Z,97.10
2018-09-10T06:25:26.846Z,97.10
2018-09-10T06:27:54.686Z,97.30
2018-09-10T06:30:22.435Z,97.10
2018-09-10T06:32:50.088Z,97.10
2018-09-10T06:35:17.987Z,96.90
2018-09-10T06:37:45.666Z,97.20
2018-09-10T06:40:13.401Z,96.60
2018-09-10T06:42:41.350Z,95.80
2018-09-10T06:45:09.046Z,95.30
2018-09-10T06:47:37.062Z,95.40
2018-09-10T06:50:04.818Z,95.40
2018-09-10T06:52:32.541Z,95.30
2018-09-10T06:55:00.190Z,94.70
2018-09-10T06:57:27.878Z,94.50
2018-09-10T06:59:55.757Z,94.30
2018-09-10T07:02:23.475Z,94.10
2018-09-10T07:04:55.327Z,93.70
2018-09-10T07:07:25.795Z,93.70
2018-09-10T07:09:53.523Z,93.80
2018-09-10T07:12:21.206Z,93.40
2018-09-10T07:14:48.887Z,93.20
2018-09-10T07:17:16.553Z,93.30
2018-09-10T07:19:44.289Z,93.10
2018-09-10T07:22:11.982Z,93.00
2018-09-10T07:24:39.634Z,92.60
2018-09-10T07:27:07.685Z,93.10
2018-09-10T07:29:35.450Z,93.20
2018-09-10T07:32:03.493Z,93.40
2018-09-10T07:34:31.284Z,92.60
2018-09-10T07:36:59.065Z,92.50
2018-09-10T07:39:26.729Z,92.50
2018-09-10T07:41:54.464Z,93.00
2018-09-10T07:44:22.275Z,92.60
2018-09-10T07:46:52.032Z,92.10
2018-09-10T07:49:19.859Z,91.80
2018-09-10T07:51:47.611Z,91.90
2018-09-10T07:54:15.283Z,91.90
2018-09-10T07:56:42.990Z,91.80
2018-09-10T07:59:10.758Z,92.00
2018-09-10T08:01:38.433Z,92.20
2018-09-10T08:04:06.200Z,92.20
2018-09-10T08:06:36.774Z,92.40
2018-09-10T08:09:06.702Z,91.90
2018-09-10T08:11:34.790Z,91.60
2018-09-10T08:14:02.480Z,91.60
2018-09-10T08:17:01.139Z,91.00
2018-09-10T08:19:28.806Z,91.30
2018-09-10T08:21:56.509Z,91.50
2018-09-10T08:24:24.365Z,91.60
2018-09-10T08:26:51.973Z,91.30
2018-09-10T08:29:19.773Z,91.60
2018-09-10T08:31:47.589Z,91.60
2018-09-10T08:34:15.302Z,91.40
2018-09-10T08:36:43.073Z,91.40
2018-09-10T08:39:10.770Z,91.40
2018-09-10T08:41:38.429Z,91.70
2018-09-10T08:44:06.121Z,91.20
2018-09-10T08:46:33.833Z,91.10
2018-09-10T08:49:01.522Z,90.40
2018-09-10T08:51:29.194Z,90.40
2018-09-10T08:53:56.944Z,89.20
2018-09-10T08:56:24.646Z,88.30
2018-09-10T08:58:52.315Z,87.80
2018-09-10T09:01:19.953Z,86.90
2018-09-10T09:03:47.893Z,86.60
2018-09-10T09:06:15.584Z,86.70
2018-09-10T09:08:43.246Z,86.70
2018-09-10T09:11:10.902Z,85.60
2018-09-10T09:13:38.665Z,86.70
2018-09-10T09:16:06.349Z,86.60
2018-09-10T09:18:34.020Z,86.60
2018-09-10T09:21:01.836Z,84.10
2018-09-10T09:23:29.661Z,82.30
2018-09-10T09:25:57.300Z,80.30
2018-09-10T09:28:25.129Z,79.60
2018-09-10T09:30:52.887Z,79.80
2018-09-10T09:33:20.624Z,80.40
2018-09-10T09:35:53.925Z,80.60
2018-09-10T09:38:27.140Z,81.20
2018-09-10T09:41:00.353Z,81.30
2018-09-10T09:43:33.679Z,82.00
2018-09-10T09:46:05.213Z,81.80
2018-09-10T09:48:33.070Z,82.30
2018-09-10T09:51:00.983Z,80.00
2018-09-10T09:53:28.769Z,80.30
2018-09-10T09:55:57.213Z,79.10
2018-09-10T09:58:24.913Z,79.40
2018-09-10T10:00:55.714Z,79.80
2018-09-10T10:03:28.973Z,78.90
2018-09-10T10:05:56.698Z,78.60
2018-09-10T10:08:24.378Z,78.50
2018-09-10T10:10:52.406Z,77.90
2018-09-10T10:13:20.125Z,77.90
2018-09-10T10:15:47.837Z,77.40
2018-09-10T10:18:15.494Z,77.30
2018-09-10T10:20:43.229Z,75.30
2018-09-10T10:23:10.910Z,75.20
2018-09-10T10:25:38.654Z,74.90
2018-09-10T10:28:06.385Z,73.30
2018-09-10T10:30:34.061Z,73.00
2018-09-10T10:33:01.745Z,71.80
2018-09-10T10:35:29.437Z,71.70
2018-09-10T10:37:57.878Z,70.60
2018-09-10T10:40:25.562Z,71.50
2018-09-10T10:42:53.236Z,72.10
2018-09-10T10:47:51.054Z,70.80
2018-09-10T10:50:18.811Z,72.10
2018-09-10T10:52:46.474Z,72.50
2018-09-10T10:55:14.234Z,71.90
2018-09-10T10:57:41.954Z,72.40
2018-09-10T11:00:09.794Z,71.90
2018-09-10T11:02:38.405Z,71.10
2018-09-10T11:05:06.680Z,69.10
2018-09-10T11:07:34.313Z,70.80
2018-09-10T11:10:02.060Z,71.00
2018-09-10T11:12:29.878Z,71.30
2018-09-10T11:14:57.542Z,70.30
2018-09-10T11:17:25.223Z,70.40
2018-09-10T11:19:53.058Z,71.60
2018-09-10T11:22:21.754Z,72.30
2018-09-10T11:24:49.483Z,70.80
2018-09-10T11:27:17.290Z,73.60
2018-09-10T11:29:44.938Z,75.20
2018-09-10T11:32:12.614Z,74.90
2018-09-10T11:34:40.361Z,77.60
2018-09-10T11:37:08.051Z,75.70
2018-09-10T11:39:35.974Z,76.30
2018-09-10T11:42:03.822Z,76.20
2018-09-10T11:44:31.482Z,75.20
2018-09-10T11:46:59.279Z,76.30
2018-09-10T11:49:26.937Z,76.50
2018-09-10T11:51:54.622Z,73.90
2018-09-10T11:54:22.399Z,74.20
2018-09-10T11:56:50.110Z,74.90
2018-09-10T11:59:18.002Z,75.20
2018-09-10T12:01:45.726Z,73.80
2018-09-10T12:04:13.398Z,73.70
2018-09-10T12:06:41.093Z,73.20
2018-09-10T12:09:09.781Z,72.10
2018-09-10T12:11:37.471Z,70.90
2018-09-10T12:14:05.353Z,72.30
2018-09-10T12:16:33.306Z,71.20
2018-09-10T12:19:01.029Z,71.60
2018-09-10T12:21:29.556Z,68.30
2018-09-10T12:23:57.267Z,69.20
2018-09-10T12:26:24.978Z,68.30
2018-09-10T12:28:52.691Z,67.70
2018-09-10T12:31:20.388Z,65.80
2018-09-10T12:33:48.858Z,64.70
2018-09-10T12:36:16.662Z,66.70
2018-09-10T12:38:44.358Z,66.90
2018-09-10T12:41:12.060Z,65.50
2018-09-10T12:43:39.743Z,67.10
2018-09-10T12:46:07.858Z,66.90
2018-09-10T12:48:36.099Z,66.50
2018-09-10T12:51:03.797Z,66.60
2018-09-10T12:53:31.466Z,67.00
2018-09-10T12:55:59.518Z,67.20
2018-09-10T12:58:27.665Z,66.80
2018-09-10T13:00:55.375Z,66.50
2018-09-10T13:03:23.218Z,67.30
2018-09-10T13:05:51.094Z,66.30
2018-09-10T13:08:18.846Z,67.40
2018-09-10T13:10:46.561Z,67.60
2018-09-10T13:13:14.313Z,68.40
2018-09-10T13:15:41.998Z,68.40
2018-09-10T13:18:09.706Z,67.10
2018-09-10T13:20:38.102Z,66.40
2018-09-10T13:23:06.298Z,64.90
2018-09-10T13:25:33.969Z,65.30
2018-09-10T13:28:02.254Z,67.00
2018-09-10T13:30:30.678Z,67.50
2018-09-10T13:32:58.389Z,68.40
2018-09-10T13:35:26.228Z,69.20
2018-09-10T13:37:53.910Z,70.10
2018-09-10T13:40:21.604Z,69.40
2018-09-10T13:42:49.435Z,68.70
2018-09-10T13:45:17.234Z,68.40
2018-09-10T13:47:45.505Z,68.00
2018-09-10T13:50:13.275Z,68.80
2018-09-10T13:52:41.011Z,69.80
2018-09-10T13:55:08.669Z,68.80
2018-09-10T13:57:36.370Z,69.10
2018-09-10T14:00:04.399Z,68.90
2018-09-10T14:02:32.389Z,69.70
2018-09-10T14:05:00.160Z,69.60
2018-09-10T14:07:27.838Z,69.90
2018-09-10T14:09:55.666Z,69.60
2018-09-10T14:12:23.373Z,67.70
2018-09-10T14:14:51.029Z,67.20
2018-09-10T14:17:19.348Z,67.60
2018-09-10T14:19:47.025Z,68.20
2018-09-10T14:22:14.917Z,69.30
2018-09-10T14:24:42.668Z,68.60
2018-09-10T14:27:10.381Z,69.10
2018-09-10T14:29:38.076Z,70.50
2018-09-10T14:32:05.842Z,70.20
2018-09-10T14:34:33.556Z,71.50
2018-09-10T14:37:01.281Z,71.90
2018-09-10T14:39:28.983Z,71.10
2018-09-10T14:41:59.280Z,70.90
2018-09-10T14:44:27.550Z,71.50
2018-09-10T14:46:55.253Z,71.70
2018-09-10T14:49:22.942Z,71.70
2018-09-10T14:51:50.628Z,72.00
2018-09-10T14:54:18.363Z,73.00
2018-09-10T14:56:46.047Z,73.00
2018-09-10T14:59:13.755Z,73.20
2018-09-10T15:01:41.834Z,73.70
2018-09-10T15:04:09.542Z,73.30
2018-09-10T15:06:37.196Z,73.00
2018-09-10T15:09:06.654Z,72.60
2018-09-10T15:11:35.128Z,72.40
2018-09-10T15:14:02.883Z,71.60
2018-09-10T15:16:30.521Z,70.70
2018-09-10T15:18:58.305Z,70.60
2018-09-10T15:21:25.906Z,70.80
2018-09-10T15:23:53.614Z,70.50
2018-09-10T15:26:21.314Z,70.00
2018-09-10T15:28:49.034Z,68.40
2018-09-10T15:31:16.937Z,67.00
2018-09-10T15:33:44.767Z,64.10
2018-09-10T15:36:12.430Z,61.40
2018-09-10T15:38:40.213Z,59.20
2018-09-10T15:41:07.878Z,60.70
2018-09-10T15:43:35.673Z,62.50
2018-09-10T15:46:03.338Z,63.00
2018-09-10T15:48:31.034Z,64.50
2018-09-10T15:50:58.852Z,63.20
2018-09-10T15:53:26.551Z,63.20
2018-09-10T15:55:54.219Z,62.80
2018-09-10T15:58:22.091Z,61.60
2018-09-10T16:00:49.956Z,60.80
2018-09-10T16:03:18.057Z,61.10
2018-09-10T16:05:45.702Z,60.30
2018-09-10T16:08:13.515Z,60.80
2018-09-10T16:10:42.210Z,62.10
2018-09-10T16:13:09.866Z,63.60
2018-09-10T16:15:37.523Z,64.70
2018-09-10T16:18:05.369Z,65.80
2018-09-10T16:20:33.746Z,66.80
2018-09-10T16:23:01.748Z,68.50
2018-09-10T16:25:29.437Z,69.80
2018-09-10T16:27:57.073Z,70.90
2018-09-10T16:30:24.834Z,70.80
2018-09-10T16:32:52.510Z,71.80
2018-09-10T16:35:23.955Z,72.20
2018-09-10T16:37:51.674Z,72.60
2018-09-10T16:40:19.398Z,74.40
2018-09-10T16:42:47.053Z,74.80
2018-09-10T16:45:14.834Z,73.80
2018-09-10T16:47:42.491Z,74.60
2018-09-10T16:50:10.167Z,75.00
2018-09-10T16:52:38.218Z,75.40
2018-09-10T16:55:06.510Z,75.10
2018-09-10T16:57:34.766Z,75.90
2018-09-10T17:00:03.246Z,76.60
2018-09-10T17:02:33.217Z,76.30
2018-09-10T17:05:00.954Z,76.50
2018-09-10T17:07:28.598Z,76.70
2018-09-10T17:09:56.336Z,76.90
2018-09-10T17:12:24.100Z,77.20
2018-09-10T17:14:52.746Z,77.00
2018-09-10T17:17:20.439Z,77.60
2018-09-10T17:19:48.201Z,77.80
2018-09-10T17:22:17.060Z,77.90
2018-09-10T17:24:46.449Z,78.20
2018-09-10T17:27:14.579Z,78.50
2018-09-10T17:29:42.446Z,79.30
2018-09-10T17:32:11.586Z,79.00
2018-09-10T17:34:39.767Z,78.40
2018-09-10T17:37:07.662Z,78.70
2018-09-10T17:39:36.418Z,78.40
2018-09-10T17:44:35.015Z,78.40
2018-09-10T17:47:02.765Z,79.00
2018-09-10T17:49:31.774Z,79.10
2018-09-10T17:51:59.558Z,79.40
2018-09-10T17:54:27.343Z,79.50
2018-09-10T17:56:55.782Z,80.70
2018-09-10T17:59:23.676Z,80.60
2018-09-10T18:01:51.373Z,81.30
2018-09-10T18:04:19.038Z,82.00
2018-09-10T18:06:46.770Z,82.40
2018-09-10T18:09:14.454Z,82.80
2018-09-10T18:12:09.163Z,82.20
2018-09-10T18:14:44.443Z,82.40
2018-09-10T18:17:12.179Z,82.30
2018-09-10T18:19:39.949Z,82.50
2018-09-10T18:22:07.615Z,82.30
2018-09-10T18:24:35.259Z,82.30
2018-09-10T18:27:02.929Z,82.90
2018-09-10T18:29:30.634Z,82.10
2018-09-10T18:31:58.365Z,82.60
2018-09-10T18:34:26.006Z,82.70
2018-09-10T18:36:54.322Z,83.20
2018-09-10T18:39:22.007Z,82.10
2018-09-10T18:41:49.671Z,83.00
2018-09-10T18:44:17.311Z,83.00
2018-09-10T18:46:45.192Z,84.00
2018-09-10T18:49:13.525Z,83.60
2018-09-10T18:51:41.226Z,83.60
2018-09-10T18:54:08.879Z,85.30
2018-09-10T18:56:36.560Z,84.00
2018-09-10T18:59:04.283Z,84.80
2018-09-10T19:01:31.992Z,85.30
2018-09-10T19:03:59.685Z,83.50
2018-09-10T19:06:27.999Z,84.70
2018-09-10T19:08:55.726Z,84.80
2018-09-10T19:11:23.418Z,84.70
2018-09-10T19:13:51.163Z,84.20
2018-09-10T19:16:18.878Z,82.60
2018-09-10T19:18:47.107Z,82.90
2018-09-10T19:21:15.442Z,82.60
2018-09-10T19:23:43.105Z,83.20
2018-09-10T19:26:10.779Z,83.40
2018-09-10T19:28:38.966Z,83.30
2018-09-10T19:31:06.737Z,83.30
2018-09-10T19:33:35.090Z,83.40
2018-09-10T19:36:02.754Z,84.10
2018-09-10T19:38:30.461Z,84.90
2018-09-10T19:40:58.933Z,85.30
2018-09-10T19:43:26.779Z,85.60
2018-09-10T19:45:54.470Z,85.60
2018-09-10T19:48:22.135Z,85.90
2018-09-10T19:50:49.937Z,85.90
2018-09-10T19:53:17.659Z,86.40
2018-09-10T19:55:45.378Z,86.40
2018-09-10T19:58:13.056Z,87.80
2018-09-10T20:00:40.738Z,87.60
2018-09-10T20:03:08.426Z,87.60
2018-09-10T20:05:36.064Z,87.30
2018-09-10T20:08:04.422Z,87.00
2018-09-10T20:10:32.755Z,87.20
2018-09-10T20:13:00.438Z,87.60
2018-09-10T20:15:28.352Z,87.80
2018-09-10T20:17:56.282Z,88.30
2018-09-10T20:20:24.010Z,87.50
2018-09-10T20:22:51.701Z,87.70
2018-09-10T20:25:19.704Z,88.70
2018-09-10T20:27:47.461Z,88.70
2018-09-10T20:30:15.148Z,89.90
2018-09-10T20:32:43.404Z,89.60
2018-09-10T20:35:11.536Z,88.60
2018-09-10T20:37:39.267Z,89.60
2018-09-10T20:40:06.963Z,89.40
2018-09-10T20:42:34.641Z,89.20
2018-09-10T20:45:02.778Z,89.70
2018-09-10T20:47:31.091Z,90.00
2018-09-10T20:49:58.874Z,90.20
2018-09-10T20:52:26.566Z,90.20
2018-09-10T20:54:54.233Z,90.40
2018-09-10T20:57:21.945Z,90.50
2018-09-10T20:59:49.693Z,90.40
2018-09-10T21:02:17.389Z,90.60
2018-09-10T21:04:45.054Z,90.70
2018-09-10T21:07:12.710Z,90.60
2018-09-10T21:09:40.389Z,90.80
2018-09-10T21:12:08.053Z,90.80
2018-09-10T21:14:35.758Z,90.80
2018-09-10T21:17:03.423Z,90.90
2018-09-10T21:19:31.325Z,90.90
2018-09-10T21:21:58.989Z,90.90
2018-09-10T21:24:26.687Z,91.10
2018-09-10T21:26:54.350Z,91.10
2018-09-10T21:29:22.043Z,91.20
2018-09-10T21:31:49.713Z,91.20
2018-09-10T21:34:17.692Z,91.30
2018-09-10T21:36:45.370Z,91.30
2018-09-10T21:39:13.062Z,91.30
2018-09-10T21:41:40.738Z,91.40
2018-09-10T21:44:09.162Z,91.40
2018-09-10T21:46:36.802Z,91.50
2018-09-10T21:49:04.490Z,91.50
2018-09-10T21:51:32.133Z,91.60
2018-09-10T21:53:59.829Z,91.60
2018-09-10T21:56:27.658Z,91.70
2018-09-10T21:58:55.361Z,91.80
2018-09-10T22:01:23.126Z,91.90
2018-09-10T22:03:50.818Z,91.90
2018-09-10T22:06:18.517Z,92.00
2018-09-10T22:08:46.195Z,92.10
2018-09-10T22:11:13.871Z,92.20
2018-09-10T22:13:41.761Z,92.20
2018-09-10T22:16:09.412Z,92.30
2018-09-10T22:18:37.098Z,92.40
2018-09-10T22:21:04.918Z,92.40
2018-09-10T22:23:32.758Z,92.40
2018-09-10T22:26:01.047Z,92.40
2018-09-10T22:28:28.731Z,92.50
2018-09-10T22:30:56.453Z,92.60
2018-09-10T22:33:24.136Z,92.70
2018-09-10T22:35:51.806Z,92.80
2018-09-10T22:38:19.473Z,92.80
2018-09-10T22:40:47.137Z,93.00
2018-09-10T22:43:14.823Z,93.10
2018-09-10T22:45:42.549Z,93.20
2018-09-10T22:48:10.260Z,93.50
2018-09-10T22:50:37.948Z,93.50
2018-09-10T22:53:05.782Z,93.80
2018-09-10T22:55:33.535Z,93.80
2018-09-10T22:58:01.206Z,93.80
2018-09-10T23:00:28.894Z,93.80
2018-09-10T23:02:57.186Z,93.90
2018-09-10T23:05:24.884Z,93.90
2018-09-10T23:07:52.526Z,94.00
2018-09-10T23:10:20.245Z,94.00
2018-09-10T23:12:47.898Z,94.10
2018-09-10T23:15:15.594Z,94.10
2018-09-10T23:17:43.238Z,94.20
2018-09-10T23:20:10.901Z,94.20
2018-09-10T23:22:38.560Z,94.30
2018-09-10T23:25:06.321Z,94.40
2018-09-10T23:27:33.982Z,94.40
2018-09-10T23:30:01.685Z,94.60
2018-09-10T23:32:29.714Z,94.90
2018-09-10T23:34:57.390Z,94.80
2018-09-10T23:37:25.035Z,95.00
2018-09-10T23:39:52.707Z,95.00
2018-09-10T23:42:20.518Z,95.00
2018-09-10T23:44:48.195Z,95.00
2018-09-10T23:47:15.834Z,95.00
2018-09-10T23:49:44.502Z,95.00
2018-09-10T23:52:12.140Z,95.00
2018-09-10T23:54:39.814Z,95.10
2018-09-10T23:57:07.450Z,95.10
2018-09-10T23:59:35.246Z,95.10
